sensor_id;sensor_type;location;lat;lon;timestamp;P1;P2;P0
67892;PMS7003;54688;52.376;16.744;2023-02-15T00:04:32;121;91;
67892;PMS7003;54688;52.376;16.744;2023-02-15T00:07:34;99;79;
67892;PMS7003;54688;52.376;16.744;2023-02-15T00:10:37;102;90;
67892;PMS7003;54688;52.376;16.744;2023-02-15T00:13:39;102;84;
67892;PMS7003;54688;52.376;16.744;2023-02-15T00:16:42;113;85;
67892;PMS7003;54688;52.376;16.744;2023-02-15T00:19:44;108;85;
67892;PMS7003;54688;52.376;16.744;2023-02-15T00:22:46;106;87;
67892;PMS7003;54688;52.376;16.744;2023-02-15T00:25:48;110;84;
67892;PMS7003;54688;52.376;16.744;2023-02-15T00:28:51;115;87;
67892;PMS7003;54688;52.376;16.744;2023-02-15T00:31:53;118;100;
67892;PMS7003;54688;52.376;16.744;2023-02-15T00:34:56;128;101;
67892;PMS7003;54688;52.376;16.744;2023-02-15T00:37:58;123;97;
67892;PMS7003;54688;52.376;16.744;2023-02-15T00:41:04;137;103;
67892;PMS7003;54688;52.376;16.744;2023-02-15T00:44:06;126;96;
67892;PMS7003;54688;52.376;16.744;2023-02-15T00:47:08;123;93;
67892;PMS7003;54688;52.376;16.744;2023-02-15T00:50:11;123;96;
67892;PMS7003;54688;52.376;16.744;2023-02-15T00:53:13;139;106;
67892;PMS7003;54688;52.376;16.744;2023-02-15T00:56:16;147;113;
67892;PMS7003;54688;52.376;16.744;2023-02-15T00:59:18;139;104;
67892;PMS7003;54688;52.376;16.744;2023-02-15T01:02:20;130;105;
67892;PMS7003;54688;52.376;16.744;2023-02-15T01:05:23;127;98;
67892;PMS7003;54688;52.376;16.744;2023-02-15T01:08:25;135;99;
67892;PMS7003;54688;52.376;16.744;2023-02-15T01:11:28;129;105;
67892;PMS7003;54688;52.376;16.744;2023-02-15T01:14:30;126;94;
67892;PMS7003;54688;52.376;16.744;2023-02-15T01:17:32;124;97;
67892;PMS7003;54688;52.376;16.744;2023-02-15T01:20:37;115;101;
67892;PMS7003;54688;52.376;16.744;2023-02-15T01:23:40;144;101;
67892;PMS7003;54688;52.376;16.744;2023-02-15T01:26:43;151;110;
67892;PMS7003;54688;52.376;16.744;2023-02-15T01:29:45;138;106;
67892;PMS7003;54688;52.376;16.744;2023-02-15T01:32:47;149;111;
67892;PMS7003;54688;52.376;16.744;2023-02-15T01:35:56;140;118;
67892;PMS7003;54688;52.376;16.744;2023-02-15T01:38:57;156;118;
67892;PMS7003;54688;52.376;16.744;2023-02-15T01:42:00;153;118;
67892;PMS7003;54688;52.376;16.744;2023-02-15T01:45:04;168;123;
67892;PMS7003;54688;52.376;16.744;2023-02-15T01:48:19;154;126;
67892;PMS7003;54688;52.376;16.744;2023-02-15T01:51:24;157;130;
67892;PMS7003;54688;52.376;16.744;2023-02-15T01:54:31;166;127;
67892;PMS7003;54688;52.376;16.744;2023-02-15T01:57:34;138;116;
67892;PMS7003;54688;52.376;16.744;2023-02-15T02:00:36;149;119;
67892;PMS7003;54688;52.376;16.744;2023-02-15T02:03:44;139;121;
67892;PMS7003;54688;52.376;16.744;2023-02-15T02:06:50;163;128;
67892;PMS7003;54688;52.376;16.744;2023-02-15T02:09:53;154;121;
67892;PMS7003;54688;52.376;16.744;2023-02-15T02:12:58;147;113;
67892;PMS7003;54688;52.376;16.744;2023-02-15T02:16:04;157;117;
67892;PMS7003;54688;52.376;16.744;2023-02-15T02:19:42;163;122;
67892;PMS7003;54688;52.376;16.744;2023-02-15T02:23:24;145;112;
67892;PMS7003;54688;52.376;16.744;2023-02-15T02:26:51;176;127;
67892;PMS7003;54688;52.376;16.744;2023-02-15T02:30:20;165;126;
67892;PMS7003;54688;52.376;16.744;2023-02-15T02:33:35;156;122;
67892;PMS7003;54688;52.376;16.744;2023-02-15T02:36:45;161;123;
67892;PMS7003;54688;52.376;16.744;2023-02-15T02:39:56;173;128;
67892;PMS7003;54688;52.376;16.744;2023-02-15T02:43:05;169;130;
67892;PMS7003;54688;52.376;16.744;2023-02-15T02:46:17;161;130;
67892;PMS7003;54688;52.376;16.744;2023-02-15T02:49:37;161;127;
67892;PMS7003;54688;52.376;16.744;2023-02-15T02:52:41;154;128;
67892;PMS7003;54688;52.376;16.744;2023-02-15T02:55:45;153;125;
67892;PMS7003;54688;52.376;16.744;2023-02-15T02:58:50;146;119;
67892;PMS7003;54688;52.376;16.744;2023-02-15T03:01:57;152;114;
67892;PMS7003;54688;52.376;16.744;2023-02-15T03:05:04;157;119;
67892;PMS7003;54688;52.376;16.744;2023-02-15T03:08:07;152;119;
67892;PMS7003;54688;52.376;16.744;2023-02-15T03:11:11;137;117;
67892;PMS7003;54688;52.376;16.744;2023-02-15T03:14:15;150;115;
67892;PMS7003;54688;52.376;16.744;2023-02-15T03:17:20;127;108;
67892;PMS7003;54688;52.376;16.744;2023-02-15T03:23:25;128;106;
67892;PMS7003;54688;52.376;16.744;2023-02-15T03:26:29;131;101;
67892;PMS7003;54688;52.376;16.744;2023-02-15T03:29:32;124;94;
67892;PMS7003;54688;52.376;16.744;2023-02-15T03:32:37;139;107;
67892;PMS7003;54688;52.376;16.744;2023-02-15T03:35:45;110;94;
67892;PMS7003;54688;52.376;16.744;2023-02-15T03:38:52;123;93;
67892;PMS7003;54688;52.376;16.744;2023-02-15T03:41:58;127;95;
67892;PMS7003;54688;52.376;16.744;2023-02-15T03:45:05;120;94;
67892;PMS7003;54688;52.376;16.744;2023-02-15T03:51:12;115;91;
67892;PMS7003;54688;52.376;16.744;2023-02-15T03:54:21;111;92;
67892;PMS7003;54688;52.376;16.744;2023-02-15T03:57:25;106;89;
67892;PMS7003;54688;52.376;16.744;2023-02-15T04:00:29;126;99;
67892;PMS7003;54688;52.376;16.744;2023-02-15T04:03:39;118;88;
67892;PMS7003;54688;52.376;16.744;2023-02-15T04:06:41;118;93;
67892;PMS7003;54688;52.376;16.744;2023-02-15T04:09:43;119;91;
67892;PMS7003;54688;52.376;16.744;2023-02-15T04:12:45;120;92;
67892;PMS7003;54688;52.376;16.744;2023-02-15T04:15:47;118;88;
67892;PMS7003;54688;52.376;16.744;2023-02-15T04:18:49;118;97;
67892;PMS7003;54688;52.376;16.744;2023-02-15T04:21:51;121;90;
67892;PMS7003;54688;52.376;16.744;2023-02-15T04:24:53;122;97;
67892;PMS7003;54688;52.376;16.744;2023-02-15T04:27:55;132;106;
67892;PMS7003;54688;52.376;16.744;2023-02-15T04:30:57;149;123;
67892;PMS7003;54688;52.376;16.744;2023-02-15T04:33:59;141;117;
67892;PMS7003;54688;52.376;16.744;2023-02-15T04:37:02;151;126;
67892;PMS7003;54688;52.376;16.744;2023-02-15T04:40:06;144;118;
67892;PMS7003;54688;52.376;16.744;2023-02-15T04:43:08;156;124;
67892;PMS7003;54688;52.376;16.744;2023-02-15T04:46:10;168;132;
67892;PMS7003;54688;52.376;16.744;2023-02-15T04:49:12;155;120;
67892;PMS7003;54688;52.376;16.744;2023-02-15T04:52:15;159;127;
67892;PMS7003;54688;52.376;16.744;2023-02-15T04:55:17;145;121;
67892;PMS7003;54688;52.376;16.744;2023-02-15T04:58:19;154;116;
67892;PMS7003;54688;52.376;16.744;2023-02-15T05:01:21;164;128;
67892;PMS7003;54688;52.376;16.744;2023-02-15T05:04:23;140;117;
67892;PMS7003;54688;52.376;16.744;2023-02-15T05:07:25;175;125;
67892;PMS7003;54688;52.376;16.744;2023-02-15T05:13:26;162;121;
67892;PMS7003;54688;52.376;16.744;2023-02-15T05:19:27;159;114;
67892;PMS7003;54688;52.376;16.744;2023-02-15T05:22:30;163;126;
67892;PMS7003;54688;52.376;16.744;2023-02-15T05:25:32;148;115;
67892;PMS7003;54688;52.376;16.744;2023-02-15T05:28:35;144;116;
67892;PMS7003;54688;52.376;16.744;2023-02-15T05:31:38;147;113;
67892;PMS7003;54688;52.376;16.744;2023-02-15T05:34:40;130;106;
67892;PMS7003;54688;52.376;16.744;2023-02-15T05:37:43;144;112;
67892;PMS7003;54688;52.376;16.744;2023-02-15T05:40:45;129;109;
67892;PMS7003;54688;52.376;16.744;2023-02-15T05:43:47;128;98;
67892;PMS7003;54688;52.376;16.744;2023-02-15T05:46:49;113;92;
67892;PMS7003;54688;52.376;16.744;2023-02-15T05:49:52;102;85;
67892;PMS7003;54688;52.376;16.744;2023-02-15T05:52:54;111;87;
67892;PMS7003;54688;52.376;16.744;2023-02-15T05:58:56;94;72;
67892;PMS7003;54688;52.376;16.744;2023-02-15T06:01:59;110;81;
67892;PMS7003;54688;52.376;16.744;2023-02-15T06:05:02;95;79;
67892;PMS7003;54688;52.376;16.744;2023-02-15T06:08:05;96;72;
67892;PMS7003;54688;52.376;16.744;2023-02-15T06:11:08;108;80;
67892;PMS7003;54688;52.376;16.744;2023-02-15T06:14:10;89;71;
67892;PMS7003;54688;52.376;16.744;2023-02-15T06:17:12;89;70;
67892;PMS7003;54688;52.376;16.744;2023-02-15T06:20:14;98;73;
67892;PMS7003;54688;52.376;16.744;2023-02-15T06:23:16;89;74;
67892;PMS7003;54688;52.376;16.744;2023-02-15T06:26:19;93;72;
67892;PMS7003;54688;52.376;16.744;2023-02-15T06:29:21;88;69;
67892;PMS7003;54688;52.376;16.744;2023-02-15T06:38:22;94;76;
67892;PMS7003;54688;52.376;16.744;2023-02-15T06:41:25;108;84;
67892;PMS7003;54688;52.376;16.744;2023-02-15T06:44:27;115;86;
67892;PMS7003;54688;52.376;16.744;2023-02-15T06:47:29;112;93;
67892;PMS7003;54688;52.376;16.744;2023-02-15T06:50:31;116;89;
67892;PMS7003;54688;52.376;16.744;2023-02-15T06:53:33;110;86;
67892;PMS7003;54688;52.376;16.744;2023-02-15T06:56:35;121;93;
67892;PMS7003;54688;52.376;16.744;2023-02-15T06:59:37;116;86;
67892;PMS7003;54688;52.376;16.744;2023-02-15T07:02:40;130;102;
67892;PMS7003;54688;52.376;16.744;2023-02-15T07:05:42;115;89;
67892;PMS7003;54688;52.376;16.744;2023-02-15T07:08:45;126;93;
67892;PMS7003;54688;52.376;16.744;2023-02-15T07:11:47;102;84;
67892;PMS7003;54688;52.376;16.744;2023-02-15T07:14:49;102;82;
67892;PMS7003;54688;52.376;16.744;2023-02-15T07:17:51;103;85;
67892;PMS7003;54688;52.376;16.744;2023-02-15T07:20:53;104;82;
67892;PMS7003;54688;52.376;16.744;2023-02-15T07:23:56;105;84;
67892;PMS7003;54688;52.376;16.744;2023-02-15T07:26:58;86;69;
67892;PMS7003;54688;52.376;16.744;2023-02-15T07:32:59;84;67;
67892;PMS7003;54688;52.376;16.744;2023-02-15T07:36:03;82;61;
67892;PMS7003;54688;52.376;16.744;2023-02-15T07:39:05;81;58;
67892;PMS7003;54688;52.376;16.744;2023-02-15T07:42:08;81;59;
67892;PMS7003;54688;52.376;16.744;2023-02-15T07:45:10;84;61;
67892;PMS7003;54688;52.376;16.744;2023-02-15T07:48:13;81;58;
67892;PMS7003;54688;52.376;16.744;2023-02-15T07:51:15;87;63;
67892;PMS7003;54688;52.376;16.744;2023-02-15T07:54:18;82;60;
67892;PMS7003;54688;52.376;16.744;2023-02-15T07:57:19;94;64;
67892;PMS7003;54688;52.376;16.744;2023-02-15T08:00:22;86;68;
67892;PMS7003;54688;52.376;16.744;2023-02-15T08:03:24;79;59;
67892;PMS7003;54688;52.376;16.744;2023-02-15T08:06:28;82;59;
67892;PMS7003;54688;52.376;16.744;2023-02-15T08:09:31;84;62;
67892;PMS7003;54688;52.376;16.744;2023-02-15T08:12:33;78;59;
67892;PMS7003;54688;52.376;16.744;2023-02-15T08:15:35;84;59;
67892;PMS7003;54688;52.376;16.744;2023-02-15T08:18:37;87;65;
67892;PMS7003;54688;52.376;16.744;2023-02-15T08:21:41;83;61;
67892;PMS7003;54688;52.376;16.744;2023-02-15T08:24:43;80;57;
67892;PMS7003;54688;52.376;16.744;2023-02-15T08:27:45;88;63;
67892;PMS7003;54688;52.376;16.744;2023-02-15T08:30:47;77;55;
67892;PMS7003;54688;52.376;16.744;2023-02-15T08:33:52;75;56;
67892;PMS7003;54688;52.376;16.744;2023-02-15T08:36:54;75;55;
67892;PMS7003;54688;52.376;16.744;2023-02-15T08:39:56;77;55;
67892;PMS7003;54688;52.376;16.744;2023-02-15T08:42:58;78;55;
67892;PMS7003;54688;52.376;16.744;2023-02-15T08:46:01;79;56;
67892;PMS7003;54688;52.376;16.744;2023-02-15T08:49:04;74;54;
67892;PMS7003;54688;52.376;16.744;2023-02-15T08:52:06;71;49;
67892;PMS7003;54688;52.376;16.744;2023-02-15T08:55:08;75;56;
67892;PMS7003;54688;52.376;16.744;2023-02-15T08:58:10;70;51;
67892;PMS7003;54688;52.376;16.744;2023-02-15T09:01:14;75;54;
67892;PMS7003;54688;52.376;16.744;2023-02-15T09:04:16;75;53;
67892;PMS7003;54688;52.376;16.744;2023-02-15T09:07:18;74;54;
67892;PMS7003;54688;52.376;16.744;2023-02-15T09:10:21;65;50;
67892;PMS7003;54688;52.376;16.744;2023-02-15T09:13:23;70;51;
67892;PMS7003;54688;52.376;16.744;2023-02-15T09:16:27;71;51;
67892;PMS7003;54688;52.376;16.744;2023-02-15T09:19:30;73;52;
67892;PMS7003;54688;52.376;16.744;2023-02-15T09:22:32;65;49;
67892;PMS7003;54688;52.376;16.744;2023-02-15T09:25:34;71;50;
67892;PMS7003;54688;52.376;16.744;2023-02-15T09:28:36;66;50;
67892;PMS7003;54688;52.376;16.744;2023-02-15T09:31:41;73;48;
67892;PMS7003;54688;52.376;16.744;2023-02-15T09:34:43;66;49;
67892;PMS7003;54688;52.376;16.744;2023-02-15T09:37:45;65;48;
67892;PMS7003;54688;52.376;16.744;2023-02-15T09:40:57;68;48;
67892;PMS7003;54688;52.376;16.744;2023-02-15T09:44:12;67;49;
67892;PMS7003;54688;52.376;16.744;2023-02-15T09:47:41;66;48;
67892;PMS7003;54688;52.376;16.744;2023-02-15T09:50:57;70;52;
67892;PMS7003;54688;52.376;16.744;2023-02-15T09:54:12;66;48;
67892;PMS7003;54688;52.376;16.744;2023-02-15T09:57:24;63;49;
67892;PMS7003;54688;52.376;16.744;2023-02-15T10:00:35;65;50;
67892;PMS7003;54688;52.376;16.744;2023-02-15T10:03:50;66;49;
67892;PMS7003;54688;52.376;16.744;2023-02-15T10:07:04;60;46;
67892;PMS7003;54688;52.376;16.744;2023-02-15T10:10:19;63;47;
67892;PMS7003;54688;52.376;16.744;2023-02-15T10:13:33;64;47;
67892;PMS7003;54688;52.376;16.744;2023-02-15T10:16:46;64;47;
67892;PMS7003;54688;52.376;16.744;2023-02-15T10:19:59;63;47;
67892;PMS7003;54688;52.376;16.744;2023-02-15T10:23:14;63;46;
67892;PMS7003;54688;52.376;16.744;2023-02-15T10:26:21;61;45;
67892;PMS7003;54688;52.376;16.744;2023-02-15T10:29:30;60;46;
67892;PMS7003;54688;52.376;16.744;2023-02-15T10:32:39;57;44;
67892;PMS7003;54688;52.376;16.744;2023-02-15T10:35:49;61;44;
67892;PMS7003;54688;52.376;16.744;2023-02-15T10:38:58;64;47;
67892;PMS7003;54688;52.376;16.744;2023-02-15T10:42:09;62;44;
67892;PMS7003;54688;52.376;16.744;2023-02-15T10:45:20;60;44;
67892;PMS7003;54688;52.376;16.744;2023-02-15T10:48:43;54;42;
67892;PMS7003;54688;52.376;16.744;2023-02-15T10:51:58;63;46;
67892;PMS7003;54688;52.376;16.744;2023-02-15T10:55:12;57;43;
67892;PMS7003;54688;52.376;16.744;2023-02-15T10:58:22;60;41;
67892;PMS7003;54688;52.376;16.744;2023-02-15T11:01:30;59;44;
67892;PMS7003;54688;52.376;16.744;2023-02-15T11:04:40;53;43;
67892;PMS7003;54688;52.376;16.744;2023-02-15T11:07:47;52;42;
67892;PMS7003;54688;52.376;16.744;2023-02-15T11:10:54;64;43;
67892;PMS7003;54688;52.376;16.744;2023-02-15T11:16:59;60;44;
67892;PMS7003;54688;52.376;16.744;2023-02-15T11:20:15;57;43;
67892;PMS7003;54688;52.376;16.744;2023-02-15T11:23:20;55;44;
67892;PMS7003;54688;52.376;16.744;2023-02-15T11:26:28;57;44;
67892;PMS7003;54688;52.376;16.744;2023-02-15T11:29:33;58;42;
67892;PMS7003;54688;52.376;16.744;2023-02-15T11:32:38;62;46;
67892;PMS7003;54688;52.376;16.744;2023-02-15T11:35:48;57;45;
67892;PMS7003;54688;52.376;16.744;2023-02-15T11:38:55;57;43;
67892;PMS7003;54688;52.376;16.744;2023-02-15T11:42:02;58;43;
67892;PMS7003;54688;52.376;16.744;2023-02-15T11:45:19;62;46;
67892;PMS7003;54688;52.376;16.744;2023-02-15T11:48:23;61;40;
67892;PMS7003;54688;52.376;16.744;2023-02-15T11:51:26;54;40;
67892;PMS7003;54688;52.376;16.744;2023-02-15T11:54:31;56;43;
67892;PMS7003;54688;52.376;16.744;2023-02-15T11:57:38;58;45;
67892;PMS7003;54688;52.376;16.744;2023-02-15T12:00:45;58;44;
67892;PMS7003;54688;52.376;16.744;2023-02-15T12:03:49;62;43;
67892;PMS7003;54688;52.376;16.744;2023-02-15T12:06:55;54;43;
67892;PMS7003;54688;52.376;16.744;2023-02-15T12:10:03;57;46;
67892;PMS7003;54688;52.376;16.744;2023-02-15T12:13:10;61;44;
67892;PMS7003;54688;52.376;16.744;2023-02-15T12:16:12;55;40;
67892;PMS7003;54688;52.376;16.744;2023-02-15T12:19:29;58;45;
67892;PMS7003;54688;52.376;16.744;2023-02-15T12:22:33;55;43;
67892;PMS7003;54688;52.376;16.744;2023-02-15T12:25:38;59;45;
67892;PMS7003;54688;52.376;16.744;2023-02-15T12:28:42;56;44;
67892;PMS7003;54688;52.376;16.744;2023-02-15T12:31:47;61;46;
67892;PMS7003;54688;52.376;16.744;2023-02-15T12:34:53;62;44;
67892;PMS7003;54688;52.376;16.744;2023-02-15T12:38:00;59;44;
67892;PMS7003;54688;52.376;16.744;2023-02-15T12:41:10;61;44;
67892;PMS7003;54688;52.376;16.744;2023-02-15T12:44:23;58;44;
67892;PMS7003;54688;52.376;16.744;2023-02-15T12:47:26;60;45;
67892;PMS7003;54688;52.376;16.744;2023-02-15T12:50:28;59;43;
67892;PMS7003;54688;52.376;16.744;2023-02-15T12:53:32;61;45;
67892;PMS7003;54688;52.376;16.744;2023-02-15T12:56:34;60;42;
67892;PMS7003;54688;52.376;16.744;2023-02-15T12:59:37;62;46;
67892;PMS7003;54688;52.376;16.744;2023-02-15T13:02:42;58;42;
67892;PMS7003;54688;52.376;16.744;2023-02-15T13:05:46;58;43;
67892;PMS7003;54688;52.376;16.744;2023-02-15T13:08:51;54;42;
67892;PMS7003;54688;52.376;16.744;2023-02-15T13:11:56;64;45;
67892;PMS7003;54688;52.376;16.744;2023-02-15T13:14:58;61;46;
67892;PMS7003;54688;52.376;16.744;2023-02-15T13:18:00;55;39;
67892;PMS7003;54688;52.376;16.744;2023-02-15T13:21:08;58;43;
67892;PMS7003;54688;52.376;16.744;2023-02-15T13:24:17;55;43;
67892;PMS7003;54688;52.376;16.744;2023-02-15T13:27:23;58;43;
67892;PMS7003;54688;52.376;16.744;2023-02-15T13:30:29;63;44;
67892;PMS7003;54688;52.376;16.744;2023-02-15T13:33:34;61;45;
67892;PMS7003;54688;52.376;16.744;2023-02-15T13:36:44;58;45;
67892;PMS7003;54688;52.376;16.744;2023-02-15T13:39:51;56;45;
67892;PMS7003;54688;52.376;16.744;2023-02-15T13:43:00;62;45;
67892;PMS7003;54688;52.376;16.744;2023-02-15T13:46:13;53;41;
67892;PMS7003;54688;52.376;16.744;2023-02-15T13:49:27;53;41;
67892;PMS7003;54688;52.376;16.744;2023-02-15T13:52:35;60;43;
67892;PMS7003;54688;52.376;16.744;2023-02-15T13:55:44;61;46;
67892;PMS7003;54688;52.376;16.744;2023-02-15T13:59:02;78;60;
67892;PMS7003;54688;52.376;16.744;2023-02-15T14:02:30;65;46;
67892;PMS7003;54688;52.376;16.744;2023-02-15T14:08:45;69;52;
67892;PMS7003;54688;52.376;16.744;2023-02-15T14:11:57;68;50;
67892;PMS7003;54688;52.376;16.744;2023-02-15T14:15:08;64;43;
67892;PMS7003;54688;52.376;16.744;2023-02-15T14:18:19;57;44;
67892;PMS7003;54688;52.376;16.744;2023-02-15T14:21:30;60;42;
67892;PMS7003;54688;52.376;16.744;2023-02-15T14:24:38;53;42;
67892;PMS7003;54688;52.376;16.744;2023-02-15T14:27:48;63;46;
67892;PMS7003;54688;52.376;16.744;2023-02-15T14:30:54;56;41;
67892;PMS7003;54688;52.376;16.744;2023-02-15T14:36:55;59;44;
67892;PMS7003;54688;52.376;16.744;2023-02-15T14:40:02;58;41;
67892;PMS7003;54688;52.376;16.744;2023-02-15T14:43:08;59;44;
67892;PMS7003;54688;52.376;16.744;2023-02-15T14:46:20;68;49;
67892;PMS7003;54688;52.376;16.744;2023-02-15T14:49:25;64;44;
67892;PMS7003;54688;52.376;16.744;2023-02-15T14:52:29;57;41;
67892;PMS7003;54688;52.376;16.744;2023-02-15T14:55:35;63;46;
67892;PMS7003;54688;52.376;16.744;2023-02-15T14:58:37;70;51;
67892;PMS7003;54688;52.376;16.744;2023-02-15T15:01:50;62;47;
67892;PMS7003;54688;52.376;16.744;2023-02-15T15:04:59;56;43;
67892;PMS7003;54688;52.376;16.744;2023-02-15T15:08:04;58;45;
67892;PMS7003;54688;52.376;16.744;2023-02-15T15:11:41;57;43;
67892;PMS7003;54688;52.376;16.744;2023-02-15T15:14:44;60;45;
67892;PMS7003;54688;52.376;16.744;2023-02-15T15:17:57;59;46;
67892;PMS7003;54688;52.376;16.744;2023-02-15T15:21:00;71;50;
67892;PMS7003;54688;52.376;16.744;2023-02-15T15:24:05;67;48;
67892;PMS7003;54688;52.376;16.744;2023-02-15T15:28:53;64;45;
67892;PMS7003;54688;52.376;16.744;2023-02-15T15:31:56;71;50;
67892;PMS7003;54688;52.376;16.744;2023-02-15T15:35:12;60;46;
67892;PMS7003;54688;52.376;16.744;2023-02-15T15:38:30;55;44;
67892;PMS7003;54688;52.376;16.744;2023-02-15T15:41:40;59;45;
67892;PMS7003;54688;52.376;16.744;2023-02-15T15:46:03;57;43;
67892;PMS7003;54688;52.376;16.744;2023-02-15T15:49:10;58;43;
67892;PMS7003;54688;52.376;16.744;2023-02-15T15:52:15;60;47;
67892;PMS7003;54688;52.376;16.744;2023-02-15T15:55:20;58;44;
67892;PMS7003;54688;52.376;16.744;2023-02-15T15:58:23;59;43;
67892;PMS7003;54688;52.376;16.744;2023-02-15T16:01:28;55;44;
67892;PMS7003;54688;52.376;16.744;2023-02-15T16:04:32;62;43;
67892;PMS7003;54688;52.376;16.744;2023-02-15T16:07:34;58;44;
67892;PMS7003;54688;52.376;16.744;2023-02-15T16:10:36;61;47;
67892;PMS7003;54688;52.376;16.744;2023-02-15T16:13:39;66;48;
67892;PMS7003;54688;52.376;16.744;2023-02-15T16:16:46;59;46;
67892;PMS7003;54688;52.376;16.744;2023-02-15T16:19:50;65;48;
67892;PMS7003;54688;52.376;16.744;2023-02-15T16:22:58;67;48;
67892;PMS7003;54688;52.376;16.744;2023-02-15T16:26:09;65;49;
67892;PMS7003;54688;52.376;16.744;2023-02-15T16:29:18;74;53;
67892;PMS7003;54688;52.376;16.744;2023-02-15T16:32:28;62;48;
67892;PMS7003;54688;52.376;16.744;2023-02-15T16:35:31;73;52;
67892;PMS7003;54688;52.376;16.744;2023-02-15T16:38:59;70;55;
67892;PMS7003;54688;52.376;16.744;2023-02-15T16:42:08;78;61;
67892;PMS7003;54688;52.376;16.744;2023-02-15T16:45:13;120;95;
67892;PMS7003;54688;52.376;16.744;2023-02-15T16:48:21;136;104;
67892;PMS7003;54688;52.376;16.744;2023-02-15T16:51:27;145;115;
67892;PMS7003;54688;52.376;16.744;2023-02-15T16:54:30;127;107;
67892;PMS7003;54688;52.376;16.744;2023-02-15T16:57:35;134;111;
67892;PMS7003;54688;52.376;16.744;2023-02-15T17:00:39;112;91;
67892;PMS7003;54688;52.376;16.744;2023-02-15T17:03:42;115;95;
67892;PMS7003;54688;52.376;16.744;2023-02-15T17:06:57;127;103;
67892;PMS7003;54688;52.376;16.744;2023-02-15T17:10:00;131;109;
67892;PMS7003;54688;52.376;16.744;2023-02-15T17:13:03;148;118;
67892;PMS7003;54688;52.376;16.744;2023-02-15T17:16:23;114;94;
67892;PMS7003;54688;52.376;16.744;2023-02-15T17:19:29;100;85;
67892;PMS7003;54688;52.376;16.744;2023-02-15T17:22:32;93;80;
67892;PMS7003;54688;52.376;16.744;2023-02-15T17:25:37;101;91;
67892;PMS7003;54688;52.376;16.744;2023-02-15T17:28:44;118;95;
67892;PMS7003;54688;52.376;16.744;2023-02-15T17:31:48;112;89;
67892;PMS7003;54688;52.376;16.744;2023-02-15T17:34:58;133;115;
67892;PMS7003;54688;52.376;16.744;2023-02-15T17:38:05;108;94;
67892;PMS7003;54688;52.376;16.744;2023-02-15T17:41:07;84;70;
67892;PMS7003;54688;52.376;16.744;2023-02-15T17:44:09;101;88;
67892;PMS7003;54688;52.376;16.744;2023-02-15T17:47:15;104;81;
67892;PMS7003;54688;52.376;16.744;2023-02-15T17:50:20;95;80;
67892;PMS7003;54688;52.376;16.744;2023-02-15T17:53:23;78;55;
67892;PMS7003;54688;52.376;16.744;2023-02-15T17:56:25;81;66;
67892;PMS7003;54688;52.376;16.744;2023-02-15T17:59:28;85;65;
67892;PMS7003;54688;52.376;16.744;2023-02-15T18:02:33;101;86;
67892;PMS7003;54688;52.376;16.744;2023-02-15T18:05:36;95;72;
67892;PMS7003;54688;52.376;16.744;2023-02-15T18:08:39;78;57;
67892;PMS7003;54688;52.376;16.744;2023-02-15T18:11:41;77;63;
67892;PMS7003;54688;52.376;16.744;2023-02-15T18:14:43;77;62;
67892;PMS7003;54688;52.376;16.744;2023-02-15T18:17:46;83;64;
67892;PMS7003;54688;52.376;16.744;2023-02-15T18:20:48;78;62;
67892;PMS7003;54688;52.376;16.744;2023-02-15T18:23:50;79;60;
67892;PMS7003;54688;52.376;16.744;2023-02-15T18:26:53;80;68;
67892;PMS7003;54688;52.376;16.744;2023-02-15T18:29:55;81;64;
67892;PMS7003;54688;52.376;16.744;2023-02-15T18:32:58;92;73;
67892;PMS7003;54688;52.376;16.744;2023-02-15T18:36:01;92;72;
67892;PMS7003;54688;52.376;16.744;2023-02-15T18:39:05;85;67;
67892;PMS7003;54688;52.376;16.744;2023-02-15T18:42:19;79;65;
67892;PMS7003;54688;52.376;16.744;2023-02-15T18:45:23;79;63;
67892;PMS7003;54688;52.376;16.744;2023-02-15T18:48:26;82;67;
67892;PMS7003;54688;52.376;16.744;2023-02-15T18:54:27;79;60;
67892;PMS7003;54688;52.376;16.744;2023-02-15T18:57:29;82;66;
67892;PMS7003;54688;52.376;16.744;2023-02-15T19:00:33;75;56;
67892;PMS7003;54688;52.376;16.744;2023-02-15T19:03:36;79;64;
67892;PMS7003;54688;52.376;16.744;2023-02-15T19:06:43;76;56;
67892;PMS7003;54688;52.376;16.744;2023-02-15T19:09:49;84;72;
67892;PMS7003;54688;52.376;16.744;2023-02-15T19:12:53;81;65;
67892;PMS7003;54688;52.376;16.744;2023-02-15T19:15:56;84;64;
67892;PMS7003;54688;52.376;16.744;2023-02-15T19:18:59;79;62;
67892;PMS7003;54688;52.376;16.744;2023-02-15T19:22:01;82;68;
67892;PMS7003;54688;52.376;16.744;2023-02-15T19:25:04;87;67;
67892;PMS7003;54688;52.376;16.744;2023-02-15T19:28:14;83;66;
67892;PMS7003;54688;52.376;16.744;2023-02-15T19:31:17;84;66;
67892;PMS7003;54688;52.376;16.744;2023-02-15T19:34:19;96;76;
67892;PMS7003;54688;52.376;16.744;2023-02-15T19:37:24;87;70;
67892;PMS7003;54688;52.376;16.744;2023-02-15T19:40:28;104;75;
67892;PMS7003;54688;52.376;16.744;2023-02-15T19:43:31;85;66;
67892;PMS7003;54688;52.376;16.744;2023-02-15T19:46:34;91;69;
67892;PMS7003;54688;52.376;16.744;2023-02-15T19:49:36;90;74;
67892;PMS7003;54688;52.376;16.744;2023-02-15T19:52:38;87;71;
67892;PMS7003;54688;52.376;16.744;2023-02-15T19:55:42;95;75;
67892;PMS7003;54688;52.376;16.744;2023-02-15T19:58:44;90;73;
67892;PMS7003;54688;52.376;16.744;2023-02-15T20:01:46;97;76;
67892;PMS7003;54688;52.376;16.744;2023-02-15T20:04:48;106;80;
67892;PMS7003;54688;52.376;16.744;2023-02-15T20:07:51;84;67;
67892;PMS7003;54688;52.376;16.744;2023-02-15T20:10:55;102;78;
67892;PMS7003;54688;52.376;16.744;2023-02-15T20:13:58;85;72;
67892;PMS7003;54688;52.376;16.744;2023-02-15T20:17:00;95;72;
67892;PMS7003;54688;52.376;16.744;2023-02-15T20:20:03;86;71;
67892;PMS7003;54688;52.376;16.744;2023-02-15T20:23:05;84;69;
67892;PMS7003;54688;52.376;16.744;2023-02-15T20:26:12;81;66;
67892;PMS7003;54688;52.376;16.744;2023-02-15T20:29:16;81;65;
67892;PMS7003;54688;52.376;16.744;2023-02-15T20:32:18;94;79;
67892;PMS7003;54688;52.376;16.744;2023-02-15T20:35:23;85;72;
67892;PMS7003;54688;52.376;16.744;2023-02-15T20:38:28;92;75;
67892;PMS7003;54688;52.376;16.744;2023-02-15T20:41:30;91;74;